sensor_id;sensor_type;location;lat;lon;timestamp;temperature;humidity
66257;DHT22;53049;43.446;3.698;2023-08-24T00:01:28;25.70;99.90
66257;DHT22;53049;43.446;3.698;2023-08-24T00:03:54;25.70;99.90
66257;DHT22;53049;43.446;3.698;2023-08-24T00:06:20;25.70;99.90
66257;DHT22;53049;43.446;3.698;2023-08-24T00:08:45;25.70;99.90
66257;DHT22;53049;43.446;3.698;2023-08-24T00:11:11;25.70;99.90
66257;DHT22;53049;43.446;3.698;2023-08-24T00:13:44;25.60;99.90
66257;DHT22;53049;43.446;3.698;2023-08-24T00:16:20;25.60;99.90
66257;DHT22;53049;43.446;3.698;2023-08-24T00:18:46;25.60;99.90
66257;DHT22;53049;43.446;3.698;2023-08-24T00:21:15;25.60;99.90
66257;DHT22;53049;43.446;3.698;2023-08-24T00:23:43;25.60;99.90
66257;DHT22;53049;43.446;3.698;2023-08-24T00:26:09;25.50;99.90
66257;DHT22;53049;43.446;3.698;2023-08-24T00:28:35;25.50;99.90
66257;DHT22;53049;43.446;3.698;2023-08-24T00:31:01;25.50;99.90
66257;DHT22;53049;43.446;3.698;2023-08-24T00:33:26;25.50;99.90
66257;DHT22;53049;43.446;3.698;2023-08-24T00:35:52;25.50;99.90
66257;DHT22;53049;43.446;3.698;2023-08-24T00:38:17;25.50;99.90
66257;DHT22;53049;43.446;3.698;2023-08-24T00:40:43;25.60;99.90
66257;DHT22;53049;43.446;3.698;2023-08-24T00:43:09;25.70;99.90
66257;DHT22;53049;43.446;3.698;2023-08-24T00:45:35;25.70;99.90
66257;DHT22;53049;43.446;3.698;2023-08-24T00:48:02;25.70;99.90
66257;DHT22;53049;43.446;3.698;2023-08-24T00:50:28;25.80;99.90
66257;DHT22;53049;43.446;3.698;2023-08-24T00:52:54;25.70;99.90
66257;DHT22;53049;43.446;3.698;2023-08-24T00:55:20;25.60;99.90
66257;DHT22;53049;43.446;3.698;2023-08-24T00:57:47;25.50;99.90
66257;DHT22;53049;43.446;3.698;2023-08-24T01:00:14;25.50;99.90
66257;DHT22;53049;43.446;3.698;2023-08-24T01:02:40;25.40;99.90
66257;DHT22;53049;43.446;3.698;2023-08-24T01:05:06;25.40;99.90
66257;DHT22;53049;43.446;3.698;2023-08-24T01:07:38;25.40;99.90
66257;DHT22;53049;43.446;3.698;2023-08-24T01:10:05;25.40;99.90
66257;DHT22;53049;43.446;3.698;2023-08-24T01:13:07;25.50;99.90
66257;DHT22;53049;43.446;3.698;2023-08-24T01:18:10;25.60;99.90
66257;DHT22;53049;43.446;3.698;2023-08-24T01:20:37;25.60;99.90
66257;DHT22;53049;43.446;3.698;2023-08-24T01:28:02;25.70;99.90
66257;DHT22;53049;43.446;3.698;2023-08-24T01:30:29;25.70;99.90
66257;DHT22;53049;43.446;3.698;2023-08-24T01:32:56;25.80;99.90
66257;DHT22;53049;43.446;3.698;2023-08-24T01:35:22;25.70;99.90
66257;DHT22;53049;43.446;3.698;2023-08-24T01:37:47;25.80;99.90
66257;DHT22;53049;43.446;3.698;2023-08-24T01:40:17;25.80;99.90
66257;DHT22;53049;43.446;3.698;2023-08-24T01:43:06;25.90;99.90
66257;DHT22;53049;43.446;3.698;2023-08-24T01:45:33;26.00;99.90
66257;DHT22;53049;43.446;3.698;2023-08-24T01:48:01;26.00;99.90
66257;DHT22;53049;43.446;3.698;2023-08-24T01:50:29;26.00;99.90
66257;DHT22;53049;43.446;3.698;2023-08-24T01:52:55;26.00;99.90
66257;DHT22;53049;43.446;3.698;2023-08-24T01:55:21;25.90;99.90
66257;DHT22;53049;43.446;3.698;2023-08-24T01:57:48;25.80;99.90
66257;DHT22;53049;43.446;3.698;2023-08-24T02:00:15;25.90;99.90
66257;DHT22;53049;43.446;3.698;2023-08-24T02:02:43;25.80;99.90
66257;DHT22;53049;43.446;3.698;2023-08-24T02:05:09;25.80;99.90
66257;DHT22;53049;43.446;3.698;2023-08-24T02:07:34;25.70;99.90
66257;DHT22;53049;43.446;3.698;2023-08-24T02:10:01;25.60;99.90
66257;DHT22;53049;43.446;3.698;2023-08-24T02:12:27;25.60;99.90
66257;DHT22;53049;43.446;3.698;2023-08-24T02:14:52;25.50;99.90
66257;DHT22;53049;43.446;3.698;2023-08-24T02:17:18;25.50;99.90
66257;DHT22;53049;43.446;3.698;2023-08-24T02:19:44;25.40;99.90
66257;DHT22;53049;43.446;3.698;2023-08-24T02:22:09;25.40;99.90
66257;DHT22;53049;43.446;3.698;2023-08-24T02:24:35;25.30;99.90
66257;DHT22;53049;43.446;3.698;2023-08-24T02:27:01;25.30;99.90
66257;DHT22;53049;43.446;3.698;2023-08-24T02:29:28;25.30;99.90
66257;DHT22;53049;43.446;3.698;2023-08-24T02:31:53;25.30;99.90
66257;DHT22;53049;43.446;3.698;2023-08-24T02:34:19;25.20;99.90
66257;DHT22;53049;43.446;3.698;2023-08-24T02:36:45;25.20;99.90
66257;DHT22;53049;43.446;3.698;2023-08-24T02:39:10;25.20;99.90
66257;DHT22;53049;43.446;3.698;2023-08-24T02:41:36;25.20;99.90
66257;DHT22;53049;43.446;3.698;2023-08-24T02:44:02;25.20;99.90
66257;DHT22;53049;43.446;3.698;2023-08-24T02:46:28;25.20;99.90
66257;DHT22;53049;43.446;3.698;2023-08-24T02:48:54;25.10;99.90
66257;DHT22;53049;43.446;3.698;2023-08-24T02:51:22;25.10;99.90
66257;DHT22;53049;43.446;3.698;2023-08-24T02:53:48;25.10;99.90
66257;DHT22;53049;43.446;3.698;2023-08-24T02:56:14;25.00;99.90
66257;DHT22;53049;43.446;3.698;2023-08-24T02:58:40;25.00;99.90
66257;DHT22;53049;43.446;3.698;2023-08-24T03:01:06;24.90;99.90
66257;DHT22;53049;43.446;3.698;2023-08-24T03:03:35;24.90;99.90
66257;DHT22;53049;43.446;3.698;2023-08-24T03:06:03;24.90;99.90
66257;DHT22;53049;43.446;3.698;2023-08-24T03:08:30;24.80;99.90
66257;DHT22;53049;43.446;3.698;2023-08-24T03:10:57;24.80;99.90
66257;DHT22;53049;43.446;3.698;2023-08-24T03:13:23;24.80;99.90
66257;DHT22;53049;43.446;3.698;2023-08-24T03:15:49;24.80;99.90
66257;DHT22;53049;43.446;3.698;2023-08-24T03:18:16;24.70;99.90
66257;DHT22;53049;43.446;3.698;2023-08-24T03:20:43;24.70;99.90
66257;DHT22;53049;43.446;3.698;2023-08-24T03:23:08;24.70;99.90
66257;DHT22;53049;43.446;3.698;2023-08-24T03:25:39;24.70;99.90
66257;DHT22;53049;43.446;3.698;2023-08-24T03:28:06;24.60;99.90
66257;DHT22;53049;43.446;3.698;2023-08-24T03:30:37;24.60;99.90
66257;DHT22;53049;43.446;3.698;2023-08-24T03:33:04;24.60;99.90
66257;DHT22;53049;43.446;3.698;2023-08-24T03:35:34;24.50;99.90
66257;DHT22;53049;43.446;3.698;2023-08-24T03:38:00;24.40;99.90
66257;DHT22;53049;43.446;3.698;2023-08-24T03:40:26;24.50;99.90
66257;DHT22;53049;43.446;3.698;2023-08-24T03:42:51;24.60;99.90
66257;DHT22;53049;43.446;3.698;2023-08-24T03:45:19;24.70;99.90
66257;DHT22;53049;43.446;3.698;2023-08-24T03:47:44;24.70;99.90
66257;DHT22;53049;43.446;3.698;2023-08-24T03:50:10;24.70;99.90
66257;DHT22;53049;43.446;3.698;2023-08-24T03:52:36;24.60;99.90
66257;DHT22;53049;43.446;3.698;2023-08-24T03:55:01;24.60;99.90
66257;DHT22;53049;43.446;3.698;2023-08-24T03:57:27;24.60;99.90
66257;DHT22;53049;43.446;3.698;2023-08-24T03:59:53;24.50;99.90
66257;DHT22;53049;43.446;3.698;2023-08-24T04:02:19;24.50;99.90
66257;DHT22;53049;43.446;3.698;2023-08-24T04:04:45;24.50;99.90
66257;DHT22;53049;43.446;3.698;2023-08-24T04:07:11;24.50;99.90
66257;DHT22;53049;43.446;3.698;2023-08-24T04:09:36;24.50;99.90
66257;DHT22;53049;43.446;3.698;2023-08-24T04:12:02;24.40;99.90
66257;DHT22;53049;43.446;3.698;2023-08-24T04:14:28;24.30;99.90
66257;DHT22;53049;43.446;3.698;2023-08-24T04:16:53;24.30;99.90
66257;DHT22;53049;43.446;3.698;2023-08-24T04:19:19;24.30;99.90
66257;DHT22;53049;43.446;3.698;2023-08-24T04:21:45;24.30;99.90
66257;DHT22;53049;43.446;3.698;2023-08-24T04:24:10;24.40;99.90
66257;DHT22;53049;43.446;3.698;2023-08-24T04:26:36;24.40;99.90
66257;DHT22;53049;43.446;3.698;2023-08-24T04:29:02;24.40;99.90
66257;DHT22;53049;43.446;3.698;2023-08-24T04:31:27;24.40;99.90
66257;DHT22;53049;43.446;3.698;2023-08-24T04:33:53;24.30;99.90
66257;DHT22;53049;43.446;3.698;2023-08-24T04:36:18;24.30;99.90
66257;DHT22;53049;43.446;3.698;2023-08-24T04:38:44;24.30;99.90
66257;DHT22;53049;43.446;3.698;2023-08-24T04:41:10;24.30;99.90
66257;DHT22;53049;43.446;3.698;2023-08-24T04:43:37;24.20;99.90
66257;DHT22;53049;43.446;3.698;2023-08-24T04:46:03;24.20;99.90
66257;DHT22;53049;43.446;3.698;2023-08-24T04:48:29;24.20;99.90
66257;DHT22;53049;43.446;3.698;2023-08-24T04:51:00;24.20;99.90
66257;DHT22;53049;43.446;3.698;2023-08-24T04:53:26;24.20;99.90
66257;DHT22;53049;43.446;3.698;2023-08-24T04:55:52;24.20;99.90
66257;DHT22;53049;43.446;3.698;2023-08-24T04:58:17;24.10;99.90
66257;DHT22;53049;43.446;3.698;2023-08-24T05:00:43;24.10;99.90
66257;DHT22;53049;43.446;3.698;2023-08-24T05:03:09;24.20;99.90
66257;DHT22;53049;43.446;3.698;2023-08-24T05:05:36;24.10;99.90
66257;DHT22;53049;43.446;3.698;2023-08-24T05:08:03;24.10;99.90
66257;DHT22;53049;43.446;3.698;2023-08-24T05:10:32;24.10;99.90
66257;DHT22;53049;43.446;3.698;2023-08-24T05:12:58;24.10;99.90
66257;DHT22;53049;43.446;3.698;2023-08-24T05:15:24;24.10;99.90
66257;DHT22;53049;43.446;3.698;2023-08-24T05:17:49;24.20;99.90
66257;DHT22;53049;43.446;3.698;2023-08-24T05:20:18;24.10;99.90
66257;DHT22;53049;43.446;3.698;2023-08-24T05:22:44;24.10;99.90
66257;DHT22;53049;43.446;3.698;2023-08-24T05:25:10;24.20;99.90
66257;DHT22;53049;43.446;3.698;2023-08-24T05:27:36;24.30;99.90
66257;DHT22;53049;43.446;3.698;2023-08-24T05:30:02;24.30;99.90
66257;DHT22;53049;43.446;3.698;2023-08-24T05:32:28;24.30;99.90
66257;DHT22;53049;43.446;3.698;2023-08-24T05:34:53;24.30;99.90
66257;DHT22;53049;43.446;3.698;2023-08-24T05:37:19;24.40;99.90
66257;DHT22;53049;43.446;3.698;2023-08-24T05:39:45;24.40;99.90
66257;DHT22;53049;43.446;3.698;2023-08-24T05:42:10;24.40;99.90
66257;DHT22;53049;43.446;3.698;2023-08-24T05:44:36;24.50;99.90
66257;DHT22;53049;43.446;3.698;2023-08-24T05:47:01;24.50;99.90
66257;DHT22;53049;43.446;3.698;2023-08-24T05:49:27;24.50;99.90
66257;DHT22;53049;43.446;3.698;2023-08-24T05:51:53;24.50;99.90
66257;DHT22;53049;43.446;3.698;2023-08-24T05:54:19;24.60;99.90
66257;DHT22;53049;43.446;3.698;2023-08-24T05:56:47;24.60;99.90
66257;DHT22;53049;43.446;3.698;2023-08-24T05:59:14;24.70;99.90
66257;DHT22;53049;43.446;3.698;2023-08-24T06:01:40;24.70;99.90
66257;DHT22;53049;43.446;3.698;2023-08-24T06:04:09;24.70;99.90
66257;DHT22;53049;43.446;3.698;2023-08-24T06:06:35;24.70;99.90
66257;DHT22;53049;43.446;3.698;2023-08-24T06:09:02;24.70;99.90
66257;DHT22;53049;43.446;3.698;2023-08-24T06:11:30;24.70;99.90
66257;DHT22;53049;43.446;3.698;2023-08-24T06:13:55;24.80;99.90
66257;DHT22;53049;43.446;3.698;2023-08-24T06:16:21;24.80;99.90
66257;DHT22;53049;43.446;3.698;2023-08-24T06:24:02;24.80;99.90
66257;DHT22;53049;43.446;3.698;2023-08-24T06:26:29;24.90;99.90
66257;DHT22;53049;43.446;3.698;2023-08-24T06:28:54;24.90;99.90
66257;DHT22;53049;43.446;3.698;2023-08-24T06:31:21;25.00;99.90
66257;DHT22;53049;43.446;3.698;2023-08-24T06:33:46;25.10;99.90
66257;DHT22;53049;43.446;3.698;2023-08-24T06:36:12;25.10;99.90
66257;DHT22;53049;43.446;3.698;2023-08-24T06:38:38;25.10;99.90
66257;DHT22;53049;43.446;3.698;2023-08-24T06:41:03;25.10;99.90
66257;DHT22;53049;43.446;3.698;2023-08-24T06:43:29;25.20;99.90
66257;DHT22;53049;43.446;3.698;2023-08-24T06:45:55;25.20;99.90
66257;DHT22;53049;43.446;3.698;2023-08-24T06:48:21;25.30;99.90
66257;DHT22;53049;43.446;3.698;2023-08-24T06:50:46;25.30;99.90
66257;DHT22;53049;43.446;3.698;2023-08-24T06:53:12;25.40;99.90
66257;DHT22;53049;43.446;3.698;2023-08-24T06:55:38;25.50;99.90
66257;DHT22;53049;43.446;3.698;2023-08-24T06:58:03;25.50;99.90
66257;DHT22;53049;43.446;3.698;2023-08-24T07:00:32;25.60;99.90
66257;DHT22;53049;43.446;3.698;2023-08-24T07:02:57;25.70;99.90
66257;DHT22;53049;43.446;3.698;2023-08-24T07:05:23;25.80;99.90
66257;DHT22;53049;43.446;3.698;2023-08-24T07:07:52;25.90;99.90
66257;DHT22;53049;43.446;3.698;2023-08-24T07:10:19;26.00;99.90
66257;DHT22;53049;43.446;3.698;2023-08-24T07:12:45;26.00;99.90
66257;DHT22;53049;43.446;3.698;2023-08-24T07:15:12;26.10;99.90
66257;DHT22;53049;43.446;3.698;2023-08-24T07:17:38;26.10;99.90
66257;DHT22;53049;43.446;3.698;2023-08-24T07:20:05;26.10;99.90
66257;DHT22;53049;43.446;3.698;2023-08-24T07:22:32;26.10;99.90
66257;DHT22;53049;43.446;3.698;2023-08-24T07:24:57;26.20;99.90
66257;DHT22;53049;43.446;3.698;2023-08-24T07:27:23;26.30;99.90
66257;DHT22;53049;43.446;3.698;2023-08-24T07:29:49;26.50;99.90
66257;DHT22;53049;43.446;3.698;2023-08-24T07:32:14;26.50;99.90
66257;DHT22;53049;43.446;3.698;2023-08-24T07:34:40;26.50;99.90
66257;DHT22;53049;43.446;3.698;2023-08-24T07:37:06;26.50;99.90
66257;DHT22;53049;43.446;3.698;2023-08-24T07:39:32;26.60;99.90
66257;DHT22;53049;43.446;3.698;2023-08-24T07:41:59;26.70;99.90
66257;DHT22;53049;43.446;3.698;2023-08-24T07:44:24;26.80;99.90
66257;DHT22;53049;43.446;3.698;2023-08-24T07:46:50;26.90;99.90
66257;DHT22;53049;43.446;3.698;2023-08-24T07:49:16;27.10;99.90
66257;DHT22;53049;43.446;3.698;2023-08-24T07:51:41;27.20;99.90
66257;DHT22;53049;43.446;3.698;2023-08-24T07:54:10;27.40;99.90
66257;DHT22;53049;43.446;3.698;2023-08-24T07:56:36;27.50;99.90
66257;DHT22;53049;43.446;3.698;2023-08-24T07:59:01;27.70;99.90
66257;DHT22;53049;43.446;3.698;2023-08-24T08:01:27;27.80;99.90
66257;DHT22;53049;43.446;3.698;2023-08-24T08:03:53;27.90;99.90
66257;DHT22;53049;43.446;3.698;2023-08-24T08:06:18;28.00;99.90
66257;DHT22;53049;43.446;3.698;2023-08-24T08:08:44;28.20;99.90
66257;DHT22;53049;43.446;3.698;2023-08-24T08:11:12;28.40;99.90
66257;DHT22;53049;43.446;3.698;2023-08-24T08:13:37;28.70;99.90
66257;DHT22;53049;43.446;3.698;2023-08-24T08:16:06;29.00;99.90
66257;DHT22;53049;43.446;3.698;2023-08-24T08:18:33;29.50;99.90
66257;DHT22;53049;43.446;3.698;2023-08-24T08:20:59;30.40;99.90
66257;DHT22;53049;43.446;3.698;2023-08-24T08:23:25;31.70;99.90
66257;DHT22;53049;43.446;3.698;2023-08-24T08:25:50;32.00;99.90
66257;DHT22;53049;43.446;3.698;2023-08-24T08:28:17;36.40;99.90
66257;DHT22;53049;43.446;3.698;2023-08-24T08:30:43;39.80;99.90
66257;DHT22;53049;43.446;3.698;2023-08-24T08:33:09;41.20;99.90
66257;DHT22;53049;43.446;3.698;2023-08-24T08:35:37;40.80;99.90
66257;DHT22;53049;43.446;3.698;2023-08-24T08:38:05;36.40;99.90
66257;DHT22;53049;43.446;3.698;2023-08-24T08:40:31;34.30;99.90
66257;DHT22;53049;43.446;3.698;2023-08-24T08:42:59;33.20;99.90
66257;DHT22;53049;43.446;3.698;2023-08-24T08:45:25;32.50;99.90
66257;DHT22;53049;43.446;3.698;2023-08-24T08:47:57;31.90;99.90
66257;DHT22;53049;43.446;3.698;2023-08-24T08:50:24;31.80;99.90
66257;DHT22;53049;43.446;3.698;2023-08-24T08:52:50;31.60;99.90
66257;DHT22;53049;43.446;3.698;2023-08-24T08:55:15;31.70;99.90
66257;DHT22;53049;43.446;3.698;2023-08-24T08:57:41;32.00;99.90
66257;DHT22;53049;43.446;3.698;2023-08-24T09:00:10;32.10;99.90
66257;DHT22;53049;43.446;3.698;2023-08-24T09:02:39;32.60;99.90
66257;DHT22;53049;43.446;3.698;2023-08-24T09:05:07;33.10;99.90
66257;DHT22;53049;43.446;3.698;2023-08-24T09:07:34;33.10;99.90
66257;DHT22;53049;43.446;3.698;2023-08-24T09:10:02;33.30;99.90
66257;DHT22;53049;43.446;3.698;2023-08-24T09:12:31;32.60;99.90
66257;DHT22;53049;43.446;3.698;2023-08-24T09:15:06;32.40;99.90
66257;DHT22;53049;43.446;3.698;2023-08-24T09:17:33;32.70;99.90
66257;DHT22;53049;43.446;3.698;2023-08-24T09:20:01;32.80;99.90
66257;DHT22;53049;43.446;3.698;2023-08-24T09:22:35;32.80;99.90
66257;DHT22;53049;43.446;3.698;2023-08-24T09:25:02;33.00;99.90
66257;DHT22;53049;43.446;3.698;2023-08-24T09:27:29;33.60;99.90
66257;DHT22;53049;43.446;3.698;2023-08-24T09:29:55;34.00;99.90
66257;DHT22;53049;43.446;3.698;2023-08-24T09:32:31;34.20;99.90
66257;DHT22;53049;43.446;3.698;2023-08-24T09:37:34;34.30;99.90
66257;DHT22;53049;43.446;3.698;2023-08-24T09:40:05;34.10;99.90
66257;DHT22;53049;43.446;3.698;2023-08-24T09:42:41;33.50;99.90
66257;DHT22;53049;43.446;3.698;2023-08-24T09:45:08;33.70;99.90
66257;DHT22;53049;43.446;3.698;2023-08-24T09:47:36;33.70;99.90
66257;DHT22;53049;43.446;3.698;2023-08-24T09:50:03;34.10;99.90
66257;DHT22;53049;43.446;3.698;2023-08-24T09:52:32;33.90;99.90
66257;DHT22;53049;43.446;3.698;2023-08-24T09:55:04;34.00;99.90
66257;DHT22;53049;43.446;3.698;2023-08-24T09:57:42;34.00;99.90
66257;DHT22;53049;43.446;3.698;2023-08-24T10:00:09;33.90;99.90
66257;DHT22;53049;43.446;3.698;2023-08-24T10:02:50;34.60;99.90
66257;DHT22;53049;43.446;3.698;2023-08-24T10:05:21;34.30;99.90
66257;DHT22;53049;43.446;3.698;2023-08-24T10:07:55;34.30;99.90
66257;DHT22;53049;43.446;3.698;2023-08-24T10:10:23;34.50;99.90
66257;DHT22;53049;43.446;3.698;2023-08-24T10:12:59;34.40;99.90
66257;DHT22;53049;43.446;3.698;2023-08-24T10:15:26;33.70;99.90
66257;DHT22;53049;43.446;3.698;2023-08-24T10:17:52;33.80;99.90
66257;DHT22;53049;43.446;3.698;2023-08-24T10:20:19;33.90;99.90
66257;DHT22;53049;43.446;3.698;2023-08-24T10:22:47;33.80;99.90
66257;DHT22;53049;43.446;3.698;2023-08-24T10:25:13;33.60;99.90
66257;DHT22;53049;43.446;3.698;2023-08-24T10:27:39;33.30;99.90
66257;DHT22;53049;43.446;3.698;2023-08-24T10:30:12;32.90;99.90
66257;DHT22;53049;43.446;3.698;2023-08-24T10:32:40;32.70;99.90
66257;DHT22;53049;43.446;3.698;2023-08-24T10:35:06;32.60;99.90
66257;DHT22;53049;43.446;3.698;2023-08-24T10:37:32;32.50;99.90
66257;DHT22;53049;43.446;3.698;2023-08-24T10:40:00;32.40;99.90
66257;DHT22;53049;43.446;3.698;2023-08-24T10:42:26;32.40;99.90
66257;DHT22;53049;43.446;3.698;2023-08-24T10:44:52;32.30;99.90
66257;DHT22;53049;43.446;3.698;2023-08-24T10:47:19;32.30;99.90
66257;DHT22;53049;43.446;3.698;2023-08-24T10:54:55;32.30;99.90
66257;DHT22;53049;43.446;3.698;2023-08-24T10:57:41;32.20;99.90
66257;DHT22;53049;43.446;3.698;2023-08-24T11:02:45;32.20;99.90
66257;DHT22;53049;43.446;3.698;2023-08-24T11:05:19;32.20;99.90
66257;DHT22;53049;43.446;3.698;2023-08-24T11:08:01;32.10;99.90
66257;DHT22;53049;43.446;3.698;2023-08-24T11:13:18;32.20;99.90
66257;DHT22;53049;43.446;3.698;2023-08-24T11:15:49;32.20;99.90
66257;DHT22;53049;43.446;3.698;2023-08-24T11:18:26;32.20;99.90
66257;DHT22;53049;43.446;3.698;2023-08-24T11:20:54;32.10;99.90
66257;DHT22;53049;43.446;3.698;2023-08-24T11:23:22;32.10;99.90
66257;DHT22;53049;43.446;3.698;2023-08-24T11:25:52;32.20;99.90
66257;DHT22;53049;43.446;3.698;2023-08-24T11:28:25;32.10;99.90
66257;DHT22;53049;43.446;3.698;2023-08-24T11:30:52;32.20;99.90
66257;DHT22;53049;43.446;3.698;2023-08-24T11:33:36;32.10;99.90
66257;DHT22;53049;43.446;3.698;2023-08-24T11:36:03;32.00;99.90
66257;DHT22;53049;43.446;3.698;2023-08-24T11:41:19;32.10;99.90
66257;DHT22;53049;43.446;3.698;2023-08-24T11:43:47;32.10;99.90
66257;DHT22;53049;43.446;3.698;2023-08-24T11:46:19;32.10;99.90
66257;DHT22;53049;43.446;3.698;2023-08-24T11:48:45;32.10;99.90
66257;DHT22;53049;43.446;3.698;2023-08-24T11:51:12;32.10;99.90
66257;DHT22;53049;43.446;3.698;2023-08-24T11:53:45;32.10;99.90
66257;DHT22;53049;43.446;3.698;2023-08-24T11:56:13;32.10;99.90
66257;DHT22;53049;43.446;3.698;2023-08-24T11:58:43;32.00;99.90
66257;DHT22;53049;43.446;3.698;2023-08-24T12:01:10;32.10;99.90
66257;DHT22;53049;43.446;3.698;2023-08-24T12:03:37;32.10;99.90
66257;DHT22;53049;43.446;3.698;2023-08-24T12:06:11;32.10;99.90
66257;DHT22;53049;43.446;3.698;2023-08-24T12:08:39;32.20;99.90
66257;DHT22;53049;43.446;3.698;2023-08-24T12:11:28;32.20;99.90
66257;DHT22;53049;43.446;3.698;2023-08-24T12:13:54;32.30;99.90
66257;DHT22;53049;43.446;3.698;2023-08-24T12:16:21;32.30;99.90
66257;DHT22;53049;43.446;3.698;2023-08-24T12:18:52;32.20;99.90
66257;DHT22;53049;43.446;3.698;2023-08-24T12:21:18;32.20;99.90
66257;DHT22;53049;43.446;3.698;2023-08-24T12:23:54;32.20;99.90
66257;DHT22;53049;43.446;3.698;2023-08-24T12:26:20;32.30;99.90
66257;DHT22;53049;43.446;3.698;2023-08-24T12:28:50;32.40;99.90
66257;DHT22;53049;43.446;3.698;2023-08-24T12:31:18;32.40;99.90
66257;DHT22;53049;43.446;3.698;2023-08-24T12:33:46;32.40;99.90
66257;DHT22;53049;43.446;3.698;2023-08-24T12:36:22;32.50;99.90
66257;DHT22;53049;43.446;3.698;2023-08-24T12:38:48;32.50;99.90
66257;DHT22;53049;43.446;3.698;2023-08-24T12:41:13;32.60;99.90
66257;DHT22;53049;43.446;3.698;2023-08-24T12:43:39;32.40;99.90
66257;DHT22;53049;43.446;3.698;2023-08-24T12:46:04;32.40;99.90
66257;DHT22;53049;43.446;3.698;2023-08-24T12:48:30;32.30;99.90
66257;DHT22;53049;43.446;3.698;2023-08-24T12:50:56;32.20;99.90
66257;DHT22;53049;43.446;3.698;2023-08-24T12:53:21;32.30;99.90
66257;DHT22;53049;43.446;3.698;2023-08-24T12:55:47;32.40;99.90
66257;DHT22;53049;43.446;3.698;2023-08-24T12:58:13;32.40;99.90
66257;DHT22;53049;43.446;3.698;2023-08-24T13:00:38;32.50;99.90
66257;DHT22;53049;43.446;3.698;2023-08-24T13:03:04;32.50;99.90
66257;DHT22;53049;43.446;3.698;2023-08-24T13:05:29;32.40;99.90
66257;DHT22;53049;43.446;3.698;2023-08-24T13:07:55;32.50;99.90
66257;DHT22;53049;43.446;3.698;2023-08-24T13:10:21;32.40;99.90
66257;DHT22;53049;43.446;3.698;2023-08-24T13:12:47;32.30;99.90
66257;DHT22;53049;43.446;3.698;2023-08-24T13:15:13;32.20;99.90
66257;DHT22;53049;43.446;3.698;2023-08-24T13:17:38;32.20;99.90
66257;DHT22;53049;43.446;3.698;2023-08-24T13:20:05;32.20;99.90
66257;DHT22;53049;43.446;3.698;2023-08-24T13:22:31;32.30;99.90
66257;DHT22;53049;43.446;3.698;2023-08-24T13:24:57;32.30;99.90
66257;DHT22;53049;43.446;3.698;2023-08-24T13:27:23;32.20;99.90
66257;DHT22;53049;43.446;3.698;2023-08-24T13:29:48;32.10;99.90
66257;DHT22;53049;43.446;3.698;2023-08-24T13:32:14;32.00;99.90
66257;DHT22;53049;43.446;3.698;2023-08-24T13:34:40;32.00;99.90
66257;DHT22;53049;43.446;3.698;2023-08-24T13:37:05;32.10;99.90
66257;DHT22;53049;43.446;3.698;2023-08-24T13:39:31;32.10;99.90
66257;DHT22;53049;43.446;3.698;2023-08-24T13:41:59;32.10;99.90
66257;DHT22;53049;43.446;3.698;2023-08-24T13:44:25;32.00;99.90
66257;DHT22;53049;43.446;3.698;2023-08-24T13:46:51;32.10;99.90
66257;DHT22;53049;43.446;3.698;2023-08-24T13:49:20;32.10;99.90
66257;DHT22;53049;43.446;3.698;2023-08-24T13:51:46;32.10;99.90
66257;DHT22;53049;43.446;3.698;2023-08-24T13:54:16;32.10;99.90
66257;DHT22;53049;43.446;3.698;2023-08-24T13:56:43;32.10;99.90
66257;DHT22;53049;43.446;3.698;2023-08-24T13:59:09;32.10;99.90
66257;DHT22;53049;43.446;3.698;2023-08-24T14:01:34;32.10;99.90
66257;DHT22;53049;43.446;3.698;2023-08-24T14:04:01;32.10;99.90
66257;DHT22;53049;43.446;3.698;2023-08-24T14:06:32;32.20;99.90
66257;DHT22;53049;43.446;3.698;2023-08-24T14:09:00;32.20;99.90
66257;DHT22;53049;43.446;3.698;2023-08-24T14:11:25;32.10;99.90
66257;DHT22;53049;43.446;3.698;2023-08-24T14:13:51;32.20;99.90
66257;DHT22;53049;43.446;3.698;2023-08-24T14:16:20;32.30;99.90
66257;DHT22;53049;43.446;3.698;2023-08-24T14:18:46;32.30;99.90
66257;DHT22;53049;43.446;3.698;2023-08-24T14:21:12;32.40;99.90
66257;DHT22;53049;43.446;3.698;2023-08-24T14:23:38;32.40;99.90
66257;DHT22;53049;43.446;3.698;2023-08-24T14:26:05;32.30;99.90
66257;DHT22;53049;43.446;3.698;2023-08-24T14:28:53;32.30;99.90
66257;DHT22;53049;43.446;3.698;2023-08-24T14:31:24;32.20;99.90
66257;DHT22;53049;43.446;3.698;2023-08-24T14:33:50;32.10;99.90
66257;DHT22;53049;43.446;3.698;2023-08-24T14:36:16;32.20;99.90
66257;DHT22;53049;43.446;3.698;2023-08-24T14:38:42;32.10;99.90
66257;DHT22;53049;43.446;3.698;2023-08-24T14:41:09;32.00;99.90
66257;DHT22;53049;43.446;3.698;2023-08-24T14:43:35;32.00;99.90
66257;DHT22;53049;43.446;3.698;2023-08-24T14:46:00;32.00;99.90
66257;DHT22;53049;43.446;3.698;2023-08-24T14:48:26;31.90;99.90
66257;DHT22;53049;43.446;3.698;2023-08-24T14:50:52;31.90;99.90
66257;DHT22;53049;43.446;3.698;2023-08-24T14:53:17;31.90;99.90
66257;DHT22;53049;43.446;3.698;2023-08-24T14:55:43;31.80;99.90
66257;DHT22;53049;43.446;3.698;2023-08-24T14:58:09;31.90;99.90
66257;DHT22;53049;43.446;3.698;2023-08-24T15:00:35;31.80;99.90
66257;DHT22;53049;43.446;3.698;2023-08-24T15:03:00;31.80;99.90
66257;DHT22;53049;43.446;3.698;2023-08-24T15:05:26;31.80;99.90
66257;DHT22;53049;43.446;3.698;2023-08-24T15:07:52;31.70;99.90
66257;DHT22;53049;43.446;3.698;2023-08-24T15:10:18;31.70;99.90
66257;DHT22;53049;43.446;3.698;2023-08-24T15:12:47;31.60;99.90
66257;DHT22;53049;43.446;3.698;2023-08-24T15:15:13;31.70;99.90
66257;DHT22;53049;43.446;3.698;2023-08-24T15:17:43;31.80;99.90
66257;DHT22;53049;43.446;3.698;2023-08-24T15:20:10;31.70;99.90
66257;DHT22;53049;43.446;3.698;2023-08-24T15:22:38;31.50;99.90
66257;DHT22;53049;43.446;3.698;2023-08-24T15:25:04;31.50;99.90
66257;DHT22;53049;43.446;3.698;2023-08-24T15:27:30;31.50;99.90
66257;DHT22;53049;43.446;3.698;2023-08-24T15:29:56;31.40;99.90
66257;DHT22;53049;43.446;3.698;2023-08-24T15:32:22;31.40;99.90
66257;DHT22;53049;43.446;3.698;2023-08-24T15:34:48;31.40;99.90
66257;DHT22;53049;43.446;3.698;2023-08-24T15:37:13;31.40;99.90
66257;DHT22;53049;43.446;3.698;2023-08-24T15:39:40;31.50;99.90
66257;DHT22;53049;43.446;3.698;2023-08-24T15:42:06;31.50;99.90
66257;DHT22;53049;43.446;3.698;2023-08-24T15:44:33;31.30;99.90
66257;DHT22;53049;43.446;3.698;2023-08-24T15:46:59;31.40;99.90
66257;DHT22;53049;43.446;3.698;2023-08-24T15:49:25;31.20;99.90
66257;DHT22;53049;43.446;3.698;2023-08-24T15:51:54;31.20;99.90
66257;DHT22;53049;43.446;3.698;2023-08-24T15:54:19;31.10;99.90
66257;DHT22;53049;43.446;3.698;2023-08-24T15:56:46;31.20;99.90
66257;DHT22;53049;43.446;3.698;2023-08-24T15:59:17;31.10;99.90